Time;durP1;ratioP1;P1;durP2;ratioP2;P2;SDS_P1;SDS_P2;PMS_P1;PMS_P2;Temp;Humidity;BMP_temperature;BMP_pressure;BME280_temperature;BME280_humidity;BME280_pressure;Samples;Min_cycle;Max_cycle;Signal;HPM_P1;HPM_P2
2023/08/02 00:00:36;;;;;;;;;;;25.70;55.70;;;;;;5092648;28;19967;-55
2023/08/02 00:03:03;;;;;;;;;;;25.70;55.70;;;;;;5093111;28;19924;-52
2023/08/02 00:05:30;;;;;;;;;;;25.70;55.70;;;;;;5092373;28;20335;-54
2023/08/02 00:07:58;;;;;;;;;;;25.70;55.60;;;;;;5093288;28;20014;-54
2023/08/02 00:10:24;;;;;;;;;;;25.70;55.60;;;;;;5090637;28;20022;-53
2023/08/02 00:12:52;;;;;;;;;;;25.70;55.60;;;;;;5092318;28;19986;-54
2023/08/02 00:15:19;;;;;;;;;;;25.70;55.60;;;;;;5092386;28;19928;-54
2023/08/02 00:17:46;;;;;;;;;;;25.70;55.60;;;;;;5093224;28;20003;-52
2023/08/02 00:20:14;;;;;;;;;;;25.70;55.60;;;;;;5093089;28;19924;-53
2023/08/02 00:22:41;;;;;;;;;;;25.70;55.60;;;;;;5092791;28;19967;-53
2023/08/02 00:25:09;;;;;;;;;;;25.70;55.60;;;;;;5092988;28;19924;-52
2023/08/02 00:27:35;;;;;;;;;;;25.70;55.60;;;;;;5092399;28;19979;-54
2023/08/02 00:30:03;;;;;;;;;;;25.70;55.60;;;;;;5092774;28;20389;-54
2023/08/02 00:32:30;;;;;;;;;;;25.60;55.60;;;;;;5092839;28;19967;-55
2023/08/02 00:34:57;;;;;;;;;;;25.60;55.60;;;;;;5092247;28;19928;-53
2023/08/02 00:37:25;;;;;;;;;;;25.70;55.70;;;;;;5092582;28;19931;-54
2023/08/02 00:39:52;;;;;;;;;;;25.60;55.70;;;;;;5092662;28;19963;-55
2023/08/02 00:42:19;;;;;;;;;;;25.60;55.70;;;;;;5092326;28;19925;-54
2023/08/02 00:44:47;;;;;;;;;;;25.60;55.70;;;;;;5091045;28;19978;-53
2023/08/02 00:47:14;;;;;;;;;;;25.60;55.70;;;;;;5092437;28;19924;-54
2023/08/02 00:49:41;;;;;;;;;;;25.60;55.70;;;;;;5092522;28;19946;-51
2023/08/02 00:52:08;;;;;;;;;;;25.60;55.70;;;;;;5092262;28;19977;-55
2023/08/02 00:54:35;;;;;;;;;;;25.60;55.70;;;;;;5090382;28;19924;-54
2023/08/02 00:57:03;;;;;;;;;;;25.60;55.70;;;;;;5092285;28;20467;-55
2023/08/02 00:59:30;;;;;;;;;;;25.60;55.70;;;;;;5091333;28;19925;-54
2023/08/02 01:01:57;;;;;;;;;;;25.60;55.70;;;;;;5092397;28;20018;-54
2023/08/02 01:04:24;;;;;;;;;;;25.60;55.70;;;;;;5092403;28;19924;-54
2023/08/02 01:06:59;;;;;;;;;;;25.60;55.70;;;;;;5091828;28;20908;-51
2023/08/02 01:09:29;;;;;;;;;;;25.60;55.70;;;;;;5091528;28;20032;-55
2023/08/02 01:11:59;;;;;;;;;;;25.60;55.70;;;;;;5092913;28;19928;-55
2023/08/02 01:14:27;;;;;;;;;;;25.60;55.70;;;;;;5092766;28;19978;-55
2023/08/02 01:16:58;;;;;;;;;;;25.60;55.70;;;;;;5095417;28;19931;-53
2023/08/02 01:19:25;;;;;;;;;;;25.60;55.70;;;;;;5095719;28;20415;-54
2023/08/02 01:21:52;;;;;;;;;;;25.60;55.70;;;;;;5095380;28;19925;-54
2023/08/02 01:24:19;;;;;;;;;;;25.60;55.80;;;;;;5095894;28;20388;-52
2023/08/02 01:26:47;;;;;;;;;;;25.60;55.70;;;;;;5095514;28;19928;-54
2023/08/02 01:29:19;;;;;;;;;;;25.50;55.60;;;;;;5095181;28;19924;-53
2023/08/02 01:31:47;;;;;;;;;;;25.50;55.60;;;;;;5095733;28;20462;-54
2023/08/02 01:34:14;;;;;;;;;;;25.60;55.70;;;;;;5094892;28;19924;-54
2023/08/02 01:36:42;;;;;;;;;;;25.60;55.70;;;;;;5095677;28;20039;-54
2023/08/02 01:39:09;;;;;;;;;;;25.50;55.60;;;;;;5095190;28;20322;-54
2023/08/02 01:41:36;;;;;;;;;;;25.60;55.70;;;;;;5095522;28;20015;-53
2023/08/02 01:44:03;;;;;;;;;;;25.60;55.70;;;;;;5094645;28;19958;-54
2023/08/02 01:46:30;;;;;;;;;;;25.50;55.60;;;;;;5094944;28;20292;-54
2023/08/02 01:48:57;;;;;;;;;;;25.50;55.60;;;;;;5095246;28;20014;-53
2023/08/02 01:51:25;;;;;;;;;;;25.60;55.70;;;;;;5094799;28;20365;-54
2023/08/02 01:53:52;;;;;;;;;;;25.60;55.70;;;;;;5094735;28;20022;-54
2023/08/02 01:56:19;;;;;;;;;;;25.60;55.70;;;;;;5095053;28;19963;-54
2023/08/02 01:58:46;;;;;;;;;;;25.60;55.70;;;;;;5094893;28;20353;-54
2023/08/02 02:01:13;;;;;;;;;;;25.50;55.60;;;;;;5094687;28;19924;-54
2023/08/02 02:03:40;;;;;;;;;;;25.60;55.70;;;;;;5094517;28;20399;-54
2023/08/02 02:06:07;;;;;;;;;;;25.60;55.70;;;;;;5094265;28;19928;-54
2023/08/02 02:08:34;;;;;;;;;;;25.60;55.60;;;;;;5094211;28;20292;-53
2023/08/02 02:11:02;;;;;;;;;;;25.60;55.60;;;;;;5094960;28;19924;-52
2023/08/02 02:13:28;;;;;;;;;;;25.60;55.60;;;;;;5094460;28;20375;-54
2023/08/02 02:15:55;;;;;;;;;;;25.60;55.50;;;;;;5094770;28;19970;-54
2023/08/02 02:18:22;;;;;;;;;;;25.60;55.50;;;;;;5094712;28;19924;-54
2023/08/02 02:20:49;;;;;;;;;;;25.60;55.50;;;;;;5093631;28;19939;-53
2023/08/02 02:23:16;;;;;;;;;;;25.60;55.50;;;;;;5094573;28;19973;-53
2023/08/02 02:25:43;;;;;;;;;;;25.60;55.50;;;;;;5093032;28;20293;-55
2023/08/02 02:28:11;;;;;;;;;;;25.60;55.40;;;;;;5094316;28;19925;-54
2023/08/02 02:30:41;;;;;;;;;;;25.60;55.40;;;;;;5092862;28;19928;-54
2023/08/02 02:33:08;;;;;;;;;;;25.60;55.40;;;;;;5094836;28;19928;-52
2023/08/02 02:35:35;;;;;;;;;;;25.60;55.40;;;;;;5094244;28;19924;-51
2023/08/02 02:38:02;;;;;;;;;;;25.70;55.40;;;;;;5093840;28;19925;-55
2023/08/02 02:40:30;;;;;;;;;;;25.60;55.40;;;;;;5094434;28;19925;-54
2023/08/02 02:42:57;;;;;;;;;;;25.60;55.40;;;;;;5094312;28;19971;-53
2023/08/02 02:45:24;;;;;;;;;;;25.60;55.40;;;;;;5093963;28;20423;-53
2023/08/02 02:47:51;;;;;;;;;;;25.60;55.40;;;;;;5094082;28;20304;-54
2023/08/02 02:50:18;;;;;;;;;;;25.60;55.40;;;;;;5093860;28;19928;-52
2023/08/02 02:52:45;;;;;;;;;;;25.60;55.50;;;;;;5093657;28;19924;-54
2023/08/02 02:55:12;;;;;;;;;;;25.60;55.50;;;;;;5093130;28;20391;-57
2023/08/02 02:57:39;;;;;;;;;;;25.60;55.50;;;;;;5092150;28;19933;-53
2023/08/02 03:00:08;;;;;;;;;;;25.50;55.40;;;;;;5093078;28;20361;-55
2023/08/02 03:02:35;;;;;;;;;;;25.60;55.50;;;;;;5093784;28;19977;-54
2023/08/02 03:05:03;;;;;;;;;;;25.60;55.60;;;;;;5093441;28;19936;-52
2023/08/02 03:07:30;;;;;;;;;;;25.50;55.50;;;;;;5093847;28;20497;-54
2023/08/02 03:09:57;;;;;;;;;;;25.50;55.50;;;;;;5094025;28;19924;-54
2023/08/02 03:12:24;;;;;;;;;;;25.50;55.50;;;;;;5093709;28;19977;-53
2023/08/02 03:14:51;;;;;;;;;;;25.50;55.50;;;;;;5093512;28;19924;-55
2023/08/02 03:17:18;;;;;;;;;;;25.50;55.60;;;;;;5093918;28;20482;-54
2023/08/02 03:19:45;;;;;;;;;;;25.50;55.60;;;;;;5093180;28;20019;-54
2023/08/02 03:22:12;;;;;;;;;;;25.50;55.60;;;;;;5093788;28;20291;-54
2023/08/02 03:24:39;;;;;;;;;;;25.50;55.60;;;;;;5093834;28;19924;-53
2023/08/02 03:27:06;;;;;;;;;;;25.50;55.60;;;;;;5093356;28;20011;-55
2023/08/02 03:29:35;;;;;;;;;;;25.50;55.60;;;;;;5111131;28;19923;-53
2023/08/02 03:32:02;;;;;;;;;;;25.50;55.60;;;;;;5111137;28;19930;-54
2023/08/02 03:34:29;;;;;;;;;;;25.50;55.60;;;;;;5113665;28;19975;-54
2023/08/02 03:36:56;;;;;;;;;;;25.50;55.60;;;;;;5089838;28;19971;-54
2023/08/02 03:39:27;;;;;;;;;;;25.40;55.50;;;;;;5073386;28;19960;-55
2023/08/02 03:41:55;;;;;;;;;;;25.50;55.60;;;;;;5072933;28;19924;-53
2023/08/02 03:44:22;;;;;;;;;;;25.50;55.60;;;;;;5089792;28;19924;-53
2023/08/02 03:46:49;;;;;;;;;;;25.50;55.50;;;;;;5093393;28;20352;-54
2023/08/02 03:49:16;;;;;;;;;;;25.50;55.50;;;;;;5086852;28;20312;-53
2023/08/02 03:51:43;;;;;;;;;;;25.50;55.50;;;;;;5077636;28;20342;-54
2023/08/02 03:54:14;;;;;;;;;;;25.50;55.50;;;;;;5072115;28;20407;-55
2023/08/02 03:56:41;;;;;;;;;;;25.50;56.00;;;;;;5072668;28;20011;-54
2023/08/02 03:59:08;;;;;;;;;;;25.50;55.40;;;;;;5072957;28;20336;-53
2023/08/02 04:01:35;;;;;;;;;;;25.60;55.50;;;;;;5072222;28;20325;-52
2023/08/02 04:04:02;;;;;;;;;;;25.50;55.30;;;;;;5071928;28;19928;-54
2023/08/02 04:06:29;;;;;;;;;;;25.50;55.30;;;;;;5072798;28;19935;-54
2023/08/02 04:08:56;;;;;;;;;;;25.60;55.30;;;;;;5078484;28;19929;-54
2023/08/02 04:11:23;;;;;;;;;;;25.60;55.30;;;;;;5086223;28;19970;-53
2023/08/02 04:13:50;;;;;;;;;;;25.50;55.20;;;;;;5100101;28;19946;-54
2023/08/02 04:16:18;;;;;;;;;;;25.60;55.30;;;;;;5089693;28;19928;-53
2023/08/02 04:18:45;;;;;;;;;;;25.60;55.20;;;;;;5090700;28;19931;-54
2023/08/02 04:21:19;;;;;;;;;;;25.60;55.20;;;;;;5082844;28;20369;-54
2023/08/02 04:23:47;;;;;;;;;;;25.60;55.10;;;;;;5085474;28;20301;-52
2023/08/02 04:26:14;;;;;;;;;;;25.70;55.20;;;;;;5086896;28;20443;-53
2023/08/02 04:28:41;;;;;;;;;;;25.70;55.10;;;;;;5091435;28;20450;-54
2023/08/02 04:31:08;;;;;;;;;;;25.70;55.00;;;;;;5091523;28;20035;-52
2023/08/02 04:33:35;;;;;;;;;;;25.70;55.00;;;;;;5088968;28;19924;-53
2023/08/02 04:36:02;;;;;;;;;;;25.70;54.90;;;;;;5092186;28;20011;-53
2023/08/02 04:38:30;;;;;;;;;;;25.60;55.00;;;;;;5092639;28;19924;-53
2023/08/02 04:40:57;;;;;;;;;;;25.60;55.10;;;;;;5091769;28;19969;-52
2023/08/02 04:43:24;;;;;;;;;;;25.50;55.10;;;;;;5088740;28;19963;-54
2023/08/02 04:45:51;;;;;;;;;;;25.30;55.40;;;;;;5072372;28;19971;-53
2023/08/02 04:48:18;;;;;;;;;;;25.10;55.20;;;;;;5076605;28;19933;-54
2023/08/02 04:50:46;;;;;;;;;;;24.90;53.70;;;;;;5074694;28;20389;-53
2023/08/02 04:53:13;;;;;;;;;;;24.60;52.30;;;;;;5079760;28;19985;-51
2023/08/02 04:55:41;;;;;;;;;;;24.30;51.20;;;;;;5095205;28;19979;-52
2023/08/02 04:58:08;;;;;;;;;;;24.00;50.20;;;;;;5084277;28;19931;-53
2023/08/02 05:00:35;;;;;;;;;;;23.70;50.00;;;;;;5085855;28;20289;-54
2023/08/02 05:03:03;;;;;;;;;;;23.40;49.10;;;;;;5094753;28;19928;-54
2023/08/02 05:05:31;;;;;;;;;;;23.00;50.20;;;;;;5086377;28;19960;-53
2023/08/02 05:07:58;;;;;;;;;;;22.80;49.30;;;;;;5077898;28;20011;-53
2023/08/02 05:10:25;;;;;;;;;;;22.50;49.40;;;;;;5075422;28;19924;-55
2023/08/02 05:12:52;;;;;;;;;;;22.30;48.60;;;;;;5079255;28;20555;-53
2023/08/02 05:15:20;;;;;;;;;;;22.00;48.40;;;;;;5093239;28;19979;-52
2023/08/02 05:17:47;;;;;;;;;;;21.80;50.00;;;;;;5091175;28;19930;-53
2023/08/02 05:20:14;;;;;;;;;;;21.60;50.10;;;;;;5078516;28;19928;-55
2023/08/02 05:22:41;;;;;;;;;;;21.40;52.00;;;;;;5079502;28;20344;-64
2023/08/02 05:25:08;;;;;;;;;;;21.20;51.10;;;;;;5079976;28;19959;-65
2023/08/02 05:27:36;;;;;;;;;;;21.00;51.00;;;;;;5073342;28;19932;-61
2023/08/02 05:30:04;;;;;;;;;;;20.90;51.70;;;;;;5074923;28;19931;-63
2023/08/02 05:32:30;;;;;;;;;;;20.70;51.00;;;;;;5076872;28;19931;-63
2023/08/02 05:34:57;;;;;;;;;;;20.60;50.80;;;;;;5075445;28;19932;-64
2023/08/02 05:37:27;;;;;;;;;;;20.60;50.90;;;;;;5079987;28;19961;-64
2023/08/02 05:39:55;;;;;;;;;;;20.40;51.70;;;;;;5076300;28;19924;-61
2023/08/02 05:42:22;;;;;;;;;;;20.30;52.00;;;;;;5072943;28;20383;-64
2023/08/02 05:44:49;;;;;;;;;;;20.20;53.10;;;;;;5075911;28;19932;-64
2023/08/02 05:47:16;;;;;;;;;;;20.20;52.70;;;;;;5070431;28;19938;-65
2023/08/02 05:49:43;;;;;;;;;;;20.10;53.00;;;;;;5073253;28;19977;-65
2023/08/02 05:52:10;;;;;;;;;;;20.00;52.90;;;;;;5074140;28;20240;-63
2023/08/02 05:54:37;;;;;;;;;;;19.90;51.90;;;;;;5066832;28;19938;-65
2023/08/02 05:57:04;;;;;;;;;;;19.90;52.70;;;;;;5071772;28;19970;-62
2023/08/02 05:59:31;;;;;;;;;;;19.80;52.60;;;;;;5069456;28;19928;-63
2023/08/02 06:01:58;;;;;;;;;;;19.70;52.30;;;;;;5073113;28;20007;-63
2023/08/02 06:04:25;;;;;;;;;;;19.60;53.10;;;;;;5059342;28;19938;-63
2023/08/02 06:06:52;;;;;;;;;;;19.50;52.60;;;;;;5071507;28;19928;-61
2023/08/02 06:09:19;;;;;;;;;;;19.50;53.30;;;;;;5075088;28;19924;-61
2023/08/02 06:11:46;;;;;;;;;;;19.40;53.20;;;;;;5072413;28;19940;-63
2023/08/02 06:14:13;;;;;;;;;;;19.40;53.50;;;;;;5073840;28;19936;-63
2023/08/02 06:16:40;;;;;;;;;;;19.40;53.70;;;;;;5075960;28;20002;-64
2023/08/02 06:19:07;;;;;;;;;;;19.40;53.30;;;;;;5075283;28;19975;-64
2023/08/02 06:21:34;;;;;;;;;;;19.30;53.80;;;;;;5080918;28;20420;-63
2023/08/02 06:24:01;;;;;;;;;;;19.30;54.00;;;;;;5077167;28;19977;-63
2023/08/02 06:26:29;;;;;;;;;;;19.30;54.60;;;;;;5074774;28;20384;-63
2023/08/02 06:28:57;;;;;;;;;;;19.20;52.80;;;;;;5079652;28;19930;-64
2023/08/02 06:31:24;;;;;;;;;;;19.10;54.50;;;;;;5078257;28;19924;-64
2023/08/02 06:33:51;;;;;;;;;;;19.10;53.60;;;;;;5074379;28;20337;-64
2023/08/02 06:36:18;;;;;;;;;;;19.00;53.10;;;;;;5075685;28;20031;-64
2023/08/02 06:38:46;;;;;;;;;;;19.00;54.10;;;;;;5075867;28;20288;-64
2023/08/02 06:41:13;;;;;;;;;;;19.00;56.40;;;;;;5079483;28;19977;-64
2023/08/02 06:43:40;;;;;;;;;;;19.00;54.80;;;;;;5077344;28;20398;-62
2023/08/02 06:46:07;;;;;;;;;;;19.00;56.40;;;;;;5072016;28;19928;-61
2023/08/02 06:48:34;;;;;;;;;;;19.00;57.30;;;;;;5076413;28;19943;-63
2023/08/02 06:51:01;;;;;;;;;;;19.00;56.20;;;;;;5073895;28;19936;-62
2023/08/02 06:53:30;;;;;;;;;;;18.90;55.80;;;;;;5071342;28;19974;-63
2023/08/02 06:55:57;;;;;;;;;;;19.00;55.00;;;;;;5072674;28;19928;-62
2023/08/02 06:58:24;;;;;;;;;;;19.00;55.20;;;;;;5073585;28;19937;-64
2023/08/02 07:00:51;;;;;;;;;;;19.10;58.30;;;;;;5075577;28;19971;-62
2023/08/02 07:03:21;;;;;;;;;;;19.10;56.00;;;;;;5072006;28;20319;-63
2023/08/02 07:05:48;;;;;;;;;;;19.10;55.80;;;;;;5074357;28;19935;-59
2023/08/02 07:08:15;;;;;;;;;;;19.10;57.50;;;;;;5071612;28;20017;-63
2023/08/02 07:10:42;;;;;;;;;;;19.10;55.70;;;;;;5067590;28;19950;-63
2023/08/02 07:13:10;;;;;;;;;;;19.10;55.50;;;;;;5074896;28;19978;-62
2023/08/02 07:15:37;;;;;;;;;;;19.20;56.10;;;;;;5077267;28;19925;-63
2023/08/02 07:18:04;;;;;;;;;;;19.20;56.40;;;;;;5074037;28;19924;-63
2023/08/02 07:20:38;;;;;;;;;;;19.20;56.90;;;;;;5073438;28;20381;-64
2023/08/02 07:23:05;;;;;;;;;;;19.30;56.50;;;;;;5079553;28;19923;-64
2023/08/02 07:25:32;;;;;;;;;;;19.40;56.40;;;;;;5073257;28;20387;-65
2023/08/02 07:27:59;;;;;;;;;;;19.40;56.30;;;;;;5072887;28;20005;-65
2023/08/02 07:30:27;;;;;;;;;;;19.50;57.00;;;;;;5069605;28;19932;-64
2023/08/02 07:32:54;;;;;;;;;;;19.50;56.90;;;;;;5082421;28;19934;-66
2023/08/02 07:35:21;;;;;;;;;;;19.60;57.20;;;;;;5078577;28;19932;-64
2023/08/02 07:37:48;;;;;;;;;;;19.60;56.50;;;;;;5076923;28;20749;-64
2023/08/02 07:40:15;;;;;;;;;;;19.70;56.20;;;;;;5077423;28;20014;-64
2023/08/02 07:42:42;;;;;;;;;;;19.70;56.60;;;;;;5076168;28;19959;-66
2023/08/02 07:45:10;;;;;;;;;;;19.80;57.90;;;;;;5070933;28;19933;-65
2023/08/02 07:47:38;;;;;;;;;;;19.80;57.20;;;;;;5073149;28;19973;-64
2023/08/02 07:50:06;;;;;;;;;;;19.80;57.00;;;;;;5067833;28;19932;-64
2023/08/02 07:52:34;;;;;;;;;;;19.80;56.80;;;;;;5072839;28;19928;-64
2023/08/02 07:55:02;;;;;;;;;;;19.90;57.10;;;;;;5071238;28;19932;-64
2023/08/02 07:57:33;;;;;;;;;;;19.90;56.90;;;;;;5074714;28;19928;-64
2023/08/02 08:00:00;;;;;;;;;;;19.90;57.60;;;;;;5075646;28;19978;-64
2023/08/02 08:02:27;;;;;;;;;;;20.00;58.00;;;;;;5073602;28;19950;-64
2023/08/02 08:04:54;;;;;;;;;;;20.00;57.20;;;;;;5071090;28;20400;-64
2023/08/02 08:07:24;;;;;;;;;;;20.00;57.30;;;;;;5072097;28;20017;-64
2023/08/02 08:09:51;;;;;;;;;;;20.00;57.80;;;;;;5070501;28;20010;-64
2023/08/02 08:12:19;;;;;;;;;;;20.10;57.20;;;;;;5066918;28;19932;-63
2023/08/02 08:14:46;;;;;;;;;;;20.10;57.40;;;;;;5071543;28;20385;-65
2023/08/02 08:17:13;;;;;;;;;;;20.10;57.60;;;;;;5074208;28;19924;-64
2023/08/02 08:19:40;;;;;;;;;;;20.10;58.00;;;;;;5074971;28;20019;-64
2023/08/02 08:22:07;;;;;;;;;;;20.10;57.60;;;;;;5074860;28;20331;-64
2023/08/02 08:24:35;;;;;;;;;;;20.20;58.00;;;;;;5077949;28;19977;-64
2023/08/02 08:27:02;;;;;;;;;;;20.20;57.20;;;;;;5072954;28;19929;-64
2023/08/02 08:29:29;;;;;;;;;;;20.20;57.70;;;;;;5074905;28;19928;-64
2023/08/02 08:31:56;;;;;;;;;;;20.30;57.40;;;;;;5071295;28;20014;-65
2023/08/02 08:34:23;;;;;;;;;;;20.30;57.40;;;;;;5078341;28;20270;-64
2023/08/02 08:36:51;;;;;;;;;;;20.40;57.40;;;;;;5075569;28;20026;-64
2023/08/02 08:39:19;;;;;;;;;;;20.40;57.20;;;;;;5074409;28;19946;-65
2023/08/02 08:41:46;;;;;;;;;;;20.40;57.20;;;;;;5073620;28;19963;-63
2023/08/02 08:44:13;;;;;;;;;;;20.50;57.50;;;;;;5073532;28;20420;-65
2023/08/02 08:46:41;;;;;;;;;;;20.50;57.30;;;;;;5071642;28;20443;-64
2023/08/02 08:49:08;;;;;;;;;;;20.50;57.20;;;;;;5073719;28;19978;-64
2023/08/02 08:51:39;;;;;;;;;;;20.60;56.90;;;;;;5073632;28;19935;-65
2023/08/02 08:54:11;;;;;;;;;;;20.60;57.30;;;;;;5071976;28;20041;-66
2023/08/02 08:56:40;;;;;;;;;;;20.70;57.40;;;;;;5076575;28;19964;-65
2023/08/02 08:59:08;;;;;;;;;;;20.80;57.40;;;;;;5076338;28;19927;-63
2023/08/02 09:01:37;;;;;;;;;;;20.80;58.00;;;;;;5076062;28;19968;-64
2023/08/02 09:04:04;;;;;;;;;;;20.80;57.10;;;;;;5073622;28;19936;-63
2023/08/02 09:06:33;;;;;;;;;;;20.90;57.20;;;;;;5078888;28;19932;-66
2023/08/02 09:09:01;;;;;;;;;;;20.90;56.90;;;;;;5072038;28;19937;-65
2023/08/02 09:11:28;;;;;;;;;;;21.00;57.00;;;;;;5078989;28;20102;-66
2023/08/02 09:14:09;;;;;;;;;;;21.00;57.20;;;;;;5076107;28;20074;-64
2023/08/02 09:16:39;;;;;;;;;;;21.10;57.30;;;;;;5087374;28;20342;-64
2023/08/02 09:19:20;;;;;;;;;;;21.10;57.00;;;;;;5084758;28;19932;-64
2023/08/02 09:22:01;;;;;;;;;;;21.20;57.40;;;;;;5080231;28;20354;-64
2023/08/02 09:24:31;;;;;;;;;;;21.30;57.20;;;;;;5080839;28;19924;-64
2023/08/02 09:26:58;;;;;;;;;;;21.30;56.90;;;;;;5079212;28;20197;-65
2023/08/02 09:29:41;;;;;;;;;;;21.40;57.30;;;;;;5073617;28;19969;-66
2023/08/02 09:32:08;;;;;;;;;;;21.40;56.90;;;;;;5075340;28;19930;-66
2023/08/02 09:34:53;;;;;;;;;;;21.50;56.90;;;;;;5072199;28;19940;-66
2023/08/02 09:37:31;;;;;;;;;;;21.50;56.70;;;;;;5076933;28;19925;-66
2023/08/02 09:39:59;;;;;;;;;;;21.50;56.80;;;;;;5075502;28;19929;-65
2023/08/02 09:42:27;;;;;;;;;;;21.60;56.90;;;;;;5076015;28;19928;-67
2023/08/02 09:44:56;;;;;;;;;;;21.60;56.50;;;;;;5075243;28;20300;-65
2023/08/02 09:47:23;;;;;;;;;;;21.60;56.30;;;;;;5074106;28;19932;-65
2023/08/02 09:50:08;;;;;;;;;;;21.70;56.40;;;;;;5072675;28;20266;-66
2023/08/02 09:52:36;;;;;;;;;;;21.70;56.10;;;;;;5072924;28;19939;-68
2023/08/02 09:55:03;;;;;;;;;;;21.70;55.80;;;;;;5079857;28;20019;-66
2023/08/02 09:57:31;;;;;;;;;;;21.70;55.70;;;;;;5075111;28;19929;-67
2023/08/02 10:00:06;;;;;;;;;;;21.70;55.50;;;;;;5076248;28;19928;-66
2023/08/02 10:02:36;;;;;;;;;;;21.70;55.60;;;;;;5075042;28;19931;-65
2023/08/02 10:05:04;;;;;;;;;;;21.70;55.70;;;;;;5076700;28;19932;-66
2023/08/02 10:07:35;;;;;;;;;;;21.70;55.30;;;;;;5073722;28;21153;-66
2023/08/02 10:10:06;;;;;;;;;;;21.70;55.00;;;;;;5079515;28;19932;-66
2023/08/02 10:12:36;;;;;;;;;;;21.60;54.90;;;;;;5078287;28;20068;-66
2023/08/02 10:15:03;;;;;;;;;;;21.60;54.90;;;;;;5076304;28;19928;-66
2023/08/02 10:17:31;;;;;;;;;;;21.60;55.10;;;;;;5077469;28;19931;-67
2023/08/02 10:19:59;;;;;;;;;;;21.60;54.80;;;;;;5084142;28;19924;-67
2023/08/02 10:22:26;;;;;;;;;;;21.60;55.20;;;;;;5075483;28;20023;-68
2023/08/02 10:24:54;;;;;;;;;;;21.50;54.80;;;;;;5082454;28;20342;-66
2023/08/02 10:27:22;;;;;;;;;;;21.50;54.60;;;;;;5075286;28;20360;-66
2023/08/02 10:29:49;;;;;;;;;;;21.50;55.10;;;;;;5079572;28;19931;-66
2023/08/02 10:32:17;;;;;;;;;;;21.50;54.90;;;;;;5085891;28;19959;-66
2023/08/02 10:34:46;;;;;;;;;;;21.50;55.00;;;;;;5081069;28;19997;-66
2023/08/02 10:37:14;;;;;;;;;;;21.40;54.70;;;;;;5077344;28;19924;-66
2023/08/02 10:39:51;;;;;;;;;;;21.40;54.90;;;;;;5081422;28;20012;-66
2023/08/02 10:42:18;;;;;;;;;;;21.40;54.90;;;;;;5071472;28;20379;-65
2023/08/02 10:45:05;;;;;;;;;;;21.30;54.70;;;;;;5074568;28;19924;-66
2023/08/02 10:47:33;;;;;;;;;;;21.30;55.10;;;;;;5074190;28;19931;-67
2023/08/02 10:50:01;;;;;;;;;;;21.30;56.00;;;;;;5074718;28;19928;-66
2023/08/02 10:52:29;;;;;;;;;;;21.30;55.10;;;;;;5075028;28;19931;-67
2023/08/02 10:55:04;;;;;;;;;;;21.20;55.00;;;;;;5082403;28;19928;-66
2023/08/02 10:57:31;;;;;;;;;;;21.20;55.10;;;;;;5075238;28;19928;-66
2023/08/02 10:59:58;;;;;;;;;;;21.20;55.20;;;;;;5074211;28;19924;-64
2023/08/02 11:02:28;;;;;;;;;;;21.20;55.80;;;;;;5076719;28;19939;-65
2023/08/02 11:04:55;;;;;;;;;;;21.20;55.60;;;;;;5076435;28;19928;-65
2023/08/02 11:07:22;;;;;;;;;;;21.20;55.50;;;;;;5074071;28;19928;-65
2023/08/02 11:09:56;;;;;;;;;;;21.20;55.50;;;;;;5078066;28;19916;-64
2023/08/02 11:12:23;;;;;;;;;;;21.20;55.70;;;;;;5078299;28;19924;-64
2023/08/02 11:14:51;;;;;;;;;;;21.20;55.30;;;;;;5070319;28;19970;-64
2023/08/02 11:17:19;;;;;;;;;;;21.20;54.80;;;;;;5071335;28;20389;-63
2023/08/02 11:19:59;;;;;;;;;;;21.20;54.70;;;;;;5068632;28;19932;-63
2023/08/02 11:22:34;;;;;;;;;;;21.10;54.90;;;;;;5070444;28;20043;-64
2023/08/02 11:25:01;;;;;;;;;;;21.10;55.30;;;;;;5066679;28;19971;-63
2023/08/02 11:27:27;;;;;;;;;;;21.10;54.20;;;;;;5068215;28;20027;-63
2023/08/02 11:29:58;;;;;;;;;;;21.10;54.10;;;;;;5073983;28;20007;-59
2023/08/02 11:32:26;;;;;;;;;;;21.00;53.70;;;;;;5071073;28;19976;-58
2023/08/02 11:34:53;;;;;;;;;;;21.00;53.90;;;;;;5074316;28;19924;-59
2023/08/02 11:37:21;;;;;;;;;;;21.00;53.90;;;;;;5073573;28;20342;-57
2023/08/02 11:39:53;;;;;;;;;;;21.00;54.10;;;;;;5072334;28;19974;-59
2023/08/02 11:42:23;;;;;;;;;;;20.90;54.00;;;;;;5068333;28;19931;-59
2023/08/02 11:44:51;;;;;;;;;;;21.00;54.10;;;;;;5066804;28;20002;-59
2023/08/02 11:47:38;;;;;;;;;;;20.90;53.90;;;;;;5073081;28;19932;-58
2023/08/02 11:50:06;;;;;;;;;;;20.90;53.80;;;;;;5071373;28;19936;-59
2023/08/02 11:52:33;;;;;;;;;;;20.90;54.00;;;;;;5067551;28;19929;-59
2023/08/02 11:55:00;;;;;;;;;;;21.00;54.40;;;;;;5066506;28;20016;-59
2023/08/02 11:57:28;;;;;;;;;;;20.90;54.30;;;;;;5069158;28;19924;-59
2023/08/02 11:59:56;;;;;;;;;;;20.90;54.30;;;;;;5072669;28;19936;-59
2023/08/02 12:02:31;;;;;;;;;;;21.00;54.40;;;;;;5067273;28;19924;-59
2023/08/02 12:05:05;;;;;;;;;;;20.90;53.80;;;;;;5073773;28;19967;-59
2023/08/02 12:07:33;;;;;;;;;;;20.90;53.70;;;;;;5063957;28;20327;-59
2023/08/02 12:10:06;;;;;;;;;;;20.90;53.40;;;;;;5084860;28;19932;-59
2023/08/02 12:12:35;;;;;;;;;;;20.90;53.50;;;;;;5092208;28;19955;-59
2023/08/02 12:15:09;;;;;;;;;;;20.90;53.60;;;;;;5094376;28;19928;-59
2023/08/02 12:17:36;;;;;;;;;;;20.90;53.20;;;;;;5088480;28;20304;-58
2023/08/02 12:20:05;;;;;;;;;;;20.80;53.10;;;;;;5082589;28;19924;-58
2023/08/02 12:22:49;;;;;;;;;;;20.80;53.40;;;;;;5076166;28;20029;-59
2023/08/02 12:25:16;;;;;;;;;;;20.80;53.60;;;;;;5074181;28;19932;-59
2023/08/02 12:28:01;;;;;;;;;;;20.70;53.50;;;;;;5075669;28;19928;-59
2023/08/02 12:30:28;;;;;;;;;;;20.70;53.90;;;;;;5074628;28;20063;-60
2023/08/02 12:32:56;;;;;;;;;;;20.70;54.00;;;;;;5078280;28;20021;-60
2023/08/02 12:35:23;;;;;;;;;;;20.70;53.90;;;;;;5074334;28;19924;-60
2023/08/02 12:37:53;;;;;;;;;;;20.70;54.60;;;;;;5075263;28;20027;-60
2023/08/02 12:40:20;;;;;;;;;;;20.60;54.70;;;;;;5069420;28;19932;-60
2023/08/02 12:42:47;;;;;;;;;;;20.60;54.60;;;;;;5072249;28;19954;-62
2023/08/02 12:45:29;;;;;;;;;;;20.60;54.90;;;;;;5071243;28;19971;-60
2023/08/02 12:47:56;;;;;;;;;;;20.60;55.10;;;;;;5071044;28;20590;-60
2023/08/02 12:50:23;;;;;;;;;;;20.70;55.30;;;;;;5078812;28;19951;-60
2023/08/02 12:52:54;;;;;;;;;;;20.70;55.60;;;;;;5070844;28;19932;-60
2023/08/02 12:55:22;;;;;;;;;;;20.70;55.90;;;;;;5075534;28;19932;-60
2023/08/02 12:57:49;;;;;;;;;;;20.70;55.70;;;;;;5074132;28;19974;-60
2023/08/02 13:00:16;;;;;;;;;;;20.80;56.00;;;;;;5073040;28;19932;-59
2023/08/02 13:02:43;;;;;;;;;;;20.80;55.90;;;;;;5071880;28;19947;-60
2023/08/02 13:05:10;;;;;;;;;;;20.90;56.40;;;;;;5071303;28;19932;-58
2023/08/02 13:07:37;;;;;;;;;;;20.90;56.10;;;;;;5074134;28;19985;-60
2023/08/02 13:10:10;;;;;;;;;;;20.90;55.90;;;;;;5070668;28;19924;-61
2023/08/02 13:12:38;;;;;;;;;;;20.90;55.90;;;;;;5077728;28;20007;-60
2023/08/02 13:15:05;;;;;;;;;;;21.00;56.00;;;;;;5074809;28;19924;-59
2023/08/02 13:17:34;;;;;;;;;;;21.00;56.40;;;;;;5072995;28;20002;-60
2023/08/02 13:20:03;;;;;;;;;;;21.00;56.00;;;;;;5080287;28;19928;-59
2023/08/02 13:22:29;;;;;;;;;;;21.00;56.10;;;;;;5075068;28;20037;-60
2023/08/02 13:24:57;;;;;;;;;;;21.10;56.20;;;;;;5070545;28;19928;-60
2023/08/02 13:27:24;;;;;;;;;;;21.10;56.20;;;;;;5075698;28;19924;-60
2023/08/02 13:29:51;;;;;;;;;;;21.10;56.20;;;;;;5078156;28;19924;-60
2023/08/02 13:32:18;;;;;;;;;;;21.10;56.20;;;;;;5075524;28;20277;-59
2023/08/02 13:34:45;;;;;;;;;;;21.20;56.30;;;;;;5076258;28;19932;-59
2023/08/02 13:37:12;;;;;;;;;;;21.20;56.50;;;;;;5075132;28;19931;-60
2023/08/02 13:39:39;;;;;;;;;;;21.20;56.30;;;;;;5071341;28;20115;-59
2023/08/02 13:42:07;;;;;;;;;;;21.20;56.90;;;;;;5074833;28;20343;-59
2023/08/02 13:44:34;;;;;;;;;;;21.20;56.20;;;;;;5075113;28;19931;-59
2023/08/02 13:47:02;;;;;;;;;;;21.30;56.10;;;;;;5073658;28;19978;-59
2023/08/02 13:49:29;;;;;;;;;;;21.30;56.50;;;;;;5077741;28;20027;-57
2023/08/02 13:51:56;;;;;;;;;;;21.30;55.80;;;;;;5083732;28;19931;-59
2023/08/02 13:54:24;;;;;;;;;;;21.30;55.80;;;;;;5072567;28;19978;-59
2023/08/02 13:56:51;;;;;;;;;;;21.30;56.40;;;;;;5075060;28;20372;-59
2023/08/02 13:59:18;;;;;;;;;;;21.40;55.80;;;;;;5074237;28;19985;-58
2023/08/02 14:01:45;;;;;;;;;;;21.30;56.00;;;;;;5071213;28;20001;-59
2023/08/02 14:04:11;;;;;;;;;;;21.40;58.60;;;;;;5070110;28;21496;-59
2023/08/02 14:06:39;;;;;;;;;;;21.50;67.30;;;;;;5072775;28;19971;-59
2023/08/02 14:09:07;;;;;;;;;;;21.70;71.80;;;;;;5069194;28;20023;-59
2023/08/02 14:11:34;;;;;;;;;;;22.00;74.10;;;;;;5072711;28;20021;-58
2023/08/02 14:14:01;;;;;;;;;;;22.30;74.90;;;;;;5068850;28;19985;-59
2023/08/02 14:16:28;;;;;;;;;;;22.60;75.10;;;;;;5069665;28;19929;-59
2023/08/02 14:18:56;;;;;;;;;;;22.90;74.70;;;;;;5069942;28;20015;-59
2023/08/02 14:21:23;;;;;;;;;;;23.20;74.40;;;;;;5072885;28;19936;-59